This is the latest recevied weather packets stored in our database for station/object OH2MUI. If no packets are shown the sender has not sent any weather packets the latest 10 day(s).
| Time | Temp. | Humidity | Pressure | Rain* | Wind** | Luminosity | Snow |
|---|---|---|---|---|---|---|---|
| 1777616069 | 10.56° C | 83% | 1022.6 hPa | 0 mm | - | - | - |
| 1777615052 | 8.89° C | 88% | 1022.6 hPa | 0 mm | - | - | - |
| 1777613874 | 7.78° C | 91% | 1022.7 hPa | 0 mm | - | - | - |
| 1777612677 | 6.11° C | 94% | 1022.7 hPa | 0 mm | - | - | - |
| 1777611499 | 5.56° C | 95% | 1022.8 hPa | 0 mm | - | - | - |
| 1777610504 | 5° C | 96% | 1023.1 hPa | 0 mm | - | - | - |
| 1777609459 | 4.44° C | 95% | 1023 hPa | 0 mm | - | - | - |
| 1777608269 | 3.89° C | 93% | 1023 hPa | 0 mm | - | - | - |
| 1777607307 | 3.89° C | 92% | 1023.1 hPa | 0 mm | - | - | - |
| 1777607299 | 3.89° C | 92% | 1023.1 hPa | 0 mm | - | - | - |
| 1777606129 | 3.89° C | 91% | 1023 hPa | 0 mm | - | - | - |
| 1777605144 | 3.89° C | 92% | 1023.1 hPa | 0 mm | - | - | - |
| 1777604182 | 3.89° C | 91% | 1023.2 hPa | 0 mm | - | - | - |
| 1777603141 | 4.44° C | 90% | 1023.4 hPa | 0 mm | - | - | - |
| 1777603137 | 4.44° C | 90% | 1023.4 hPa | 0 mm | - | - | - |
| 1777601072 | 5° C | 88% | 1023.5 hPa | 0 mm | - | - | - |
| 1777584639 | 8.89° C | 77% | 1022.9 hPa | 0 mm | - | - | - |
| 1777583639 | 9.44° C | 76% | 1022.8 hPa | 0 mm | - | - | - |
| 1777580309 | 10.56° C | 72% | 1022.7 hPa | 0 mm | - | - | - |
| 1777579110 | 11.11° C | 71% | 1022.7 hPa | 0 mm | - | - | - |
| 1777576884 | 11.67° C | 70% | 1022.5 hPa | 0 mm | - | - | - |
| 1777575912 | 11.67° C | 69% | 1022.5 hPa | 0 mm | - | - | - |
| 1777573549 | 12.78° C | 67% | 1022.1 hPa | 0 mm | - | - | - |
| 1777570245 | 15° C | 62% | 1021.7 hPa | 0 mm | - | - | - |
| 1777569211 | - | - | - | - | - | - | - |
* Rain latest hour (hover to see other rain measurements)
** Current wind speed in m/s (hover to see current wind gust speed)